SCGM weather

Los Gomeros Airport
Rengo, O'Higgins Region, Chile

Public forecast

Using degrees Celsius for public forecast. Weather courtesy of forecast.io.

Closest aviation weather report (METAR) to Los Gomeros Airport

Report is more than 6 hours old.

Closest report is De La Independencia Airport, 12.4 nm (23.0 km) NNE. Retrieved 2019/10/15 23:00 UTC (9 hours ago):

SCRG 152300Z 22008KT 9999 SCT060 BKN110 20/09 Q1016

Closest aviation forecast (TAF) to Los Gomeros Airport

Closest forecast is Comodoro Arturo Merino Benítez International Airport, 58.3 nm (108.0 km) N. Retrieved 2019/10/16 06:00 UTC (2 hours ago):

TAF SCEL 160400Z 1606/1706 15004KT 8000 FEW150 BKN180 TX22/1619Z TN08/1611Z TEMPO 1608/1614 VRB02KT 5000 BR SCT180 BECMG 1616/1618 18006KT 9999 FEW040 BKN160 BECMG 1619/1621 20012KT BECMG 1701/1703 16004KT FEW050